Time;durP1;ratioP1;P1;durP2;ratioP2;P2;SDS_P1;SDS_P2;PMS_P1;PMS_P2;Temp;Humidity;BMP_temperature;BMP_pressure;BME280_temperature;BME280_humidity;BME280_pressure;Samples;Min_cycle;Max_cycle;Signal;HPM_P1;HPM_P2
2022/12/11 00:01:19;;;;;;;40.25;21.42;;;;;;;1.06;86.48;98254.63;5026668;28;20055;-82
2022/12/11 00:03:45;;;;;;;33.63;20.20;;;;;;;1.05;86.70;98233.81;5025655;28;20553;-81
2022/12/11 00:06:14;;;;;;;34.10;20.15;;;;;;;0.85;87.11;98249.56;5018557;28;20073;-81
2022/12/11 00:08:40;;;;;;;31.95;18.30;;;;;;;1.26;86.57;98236.22;5023646;28;20083;-81
2022/12/11 00:11:10;;;;;;;42.55;20.42;;;;;;;1.06;86.81;98240.66;5021440;28;20037;-80
2022/12/11 00:13:35;;;;;;;35.80;19.92;;;;;;;1.26;86.79;98247.53;5026945;28;20030;-81
2022/12/11 00:16:01;;;;;;;31.40;18.42;;;;;;;1.17;86.62;98229.53;5027033;28;20025;-81
2022/12/11 00:18:26;;;;;;;38.50;21.90;;;;;;;1.09;86.01;98233.19;5023404;28;20369;-81
2022/12/11 00:20:52;;;;;;;35.22;20.33;;;;;;;0.81;86.30;98243.09;5006340;28;20029;-81
2022/12/11 00:23:17;;;;;;;47.38;22.10;;;;;;;0.50;85.64;98227.13;5024176;28;20040;-80
2022/12/11 00:25:44;;;;;;;41.10;23.17;;;;;;;0.80;85.69;98217.84;5006376;28;20098;-81
2022/12/11 00:28:19;;;;;;;40.03;22.05;;;;;;;1.19;86.91;98235.41;5022988;28;20060;-81
2022/12/11 00:30:45;;;;;;;35.13;21.05;;;;;;;1.21;86.39;98225.50;4991519;28;20106;-81
2022/12/11 00:33:12;;;;;;;36.25;20.10;;;;;;;1.25;86.27;98217.00;5005410;28;20033;-80
2022/12/11 00:35:43;;;;;;;33.10;18.77;;;;;;;1.31;85.80;98224.06;5020349;28;20025;-80
2022/12/11 00:38:17;;;;;;;36.08;19.52;;;;;;;1.37;86.00;98241.66;5017737;28;20029;-81
2022/12/11 00:40:42;;;;;;;30.17;19.33;;;;;;;1.31;85.80;98226.69;5024100;28;20091;-82
2022/12/11 00:43:08;;;;;;;36.42;20.05;;;;;;;1.41;85.99;98242.88;5019516;28;20033;-81
2022/12/11 00:45:39;;;;;;;30.63;17.73;;;;;;;1.55;85.20;98240.22;5018377;28;20493;-81
2022/12/11 00:48:05;;;;;;;31.25;17.58;;;;;;;1.11;85.31;98225.94;5025480;28;20102;-81
2022/12/11 00:50:31;;;;;;;32.88;17.73;;;;;;;1.47;85.58;98223.63;5028434;28;20474;-81
2022/12/11 00:52:56;;;;;;;35.22;18.60;;;;;;;1.45;85.49;98222.22;5023783;28;20084;-81
2022/12/11 00:55:22;;;;;;;29.85;17.70;;;;;;;1.50;85.43;98233.75;5012553;28;20029;-81
2022/12/11 00:57:50;;;;;;;35.78;19.40;;;;;;;1.07;85.44;98232.56;4992177;28;20071;-81
2022/12/11 01:00:16;;;;;;;39.85;21.05;;;;;;;0.29;83.14;98238.56;5024673;28;20037;-81
2022/12/11 01:02:41;;;;;;;34.90;21.10;;;;;;;0.79;85.91;98255.59;5023550;28;20040;-81
2022/12/11 01:05:09;;;;;;;37.00;21.88;;;;;;;0.00;85.13;98252.78;5022206;28;20040;-81
2022/12/11 01:07:34;;;;;;;36.78;20.75;;;;;;;0.11;85.82;98248.00;5025226;28;20521;-81
2022/12/11 01:12:44;;;;;;;37.88;21.75;;;;;;;1.35;86.65;98233.19;5021271;28;20128;-81
2022/12/11 01:15:10;;;;;;;37.00;19.40;;;;;;;1.21;85.85;98210.53;5023114;28;20144;-81
2022/12/11 01:17:36;;;;;;;40.38;23.30;;;;;;;-0.10;83.63;98238.44;5021486;28;20088;-81
2022/12/11 01:20:04;;;;;;;45.95;25.00;;;;;;;-0.66;85.22;98250.03;5023875;28;20026;-80
2022/12/11 01:22:30;;;;;;;38.80;21.85;;;;;;;-0.69;86.37;98258.25;5019990;28;20084;-81
2022/12/11 01:24:55;;;;;;;49.25;23.38;;;;;;;0.10;89.88;98249.00;5020361;28;20133;-81
2022/12/11 01:27:21;;;;;;;48.60;24.45;;;;;;;0.82;88.97;98254.41;4999186;28;20037;-81
2022/12/11 01:29:46;;;;;;;50.20;24.15;;;;;;;0.93;87.39;98236.22;5012704;28;20029;-80
2022/12/11 01:32:12;;;;;;;47.50;22.58;;;;;;;0.97;87.77;98263.72;5025972;28;20032;-81
2022/12/11 01:34:37;;;;;;;43.25;22.30;;;;;;;1.31;86.79;98246.94;5022941;28;20045;-81
2022/12/11 01:37:03;;;;;;;40.95;21.42;;;;;;;1.49;85.76;98253.16;5006821;28;20397;-81
2022/12/11 01:39:29;;;;;;;39.95;20.73;;;;;;;1.27;85.87;98235.19;5022267;28;20037;-80
2022/12/11 01:41:59;;;;;;;36.47;20.83;;;;;;;1.48;85.49;98251.56;5019591;28;20075;-81
2022/12/11 01:44:25;;;;;;;37.35;21.40;;;;;;;1.11;84.91;98262.72;5020319;28;20033;-81
2022/12/11 01:46:52;;;;;;;39.90;21.25;;;;;;;1.36;85.95;98237.41;5023567;28;20025;-81
2022/12/11 01:49:20;;;;;;;38.25;21.35;;;;;;;1.05;86.53;98245.09;5024529;28;20056;-81
2022/12/11 01:52:00;;;;;;;37.38;19.88;;;;;;;1.03;84.63;98270.78;5019890;28;20108;-80
2022/12/11 01:54:27;;;;;;;36.05;19.88;;;;;;;0.89;87.04;98250.78;5025306;28;20033;-81
2022/12/11 01:56:56;;;;;;;43.08;20.65;;;;;;;0.60;87.70;98251.16;5022063;28;20459;-81
2022/12/11 01:59:25;;;;;;;39.70;21.90;;;;;;;0.60;86.27;98259.03;5020607;28;20140;-81
2022/12/11 02:01:59;;;;;;;39.72;21.05;;;;;;;1.17;87.14;98259.28;5005624;28;20079;-81
2022/12/11 02:04:26;;;;;;;41.55;20.38;;;;;;;0.89;84.14;98247.34;5020335;28;20030;-80
2022/12/11 02:06:52;;;;;;;34.97;19.77;;;;;;;1.16;85.57;98260.25;5022998;28;20246;-81
2022/12/11 02:09:22;;;;;;;37.55;20.23;;;;;;;1.39;85.61;98268.56;5021840;28;20367;-81
2022/12/11 02:11:53;;;;;;;34.35;20.50;;;;;;;1.46;85.56;98265.91;5026440;28;20025;-81
2022/12/11 02:14:31;;;;;;;43.88;21.52;;;;;;;-0.36;82.09;98264.53;5023800;28;20508;-81
2022/12/11 02:17:02;;;;;;;37.97;20.08;;;;;;;0.99;87.67;98245.94;5024730;28;20113;-81
2022/12/11 02:19:46;;;;;;;34.47;20.15;;;;;;;1.19;86.53;98249.38;5021913;28;20421;-80
2022/12/11 02:22:26;;;;;;;39.45;22.77;;;;;;;0.33;83.27;98250.28;5021375;28;20390;-82
2022/12/11 02:25:11;;;;;;;38.65;19.33;;;;;;;0.80;85.13;98256.44;5015135;28;20032;-81
2022/12/11 02:27:46;;;;;;;34.50;19.30;;;;;;;-0.11;83.90;98249.94;5019417;28;20114;-80
2022/12/11 02:30:13;;;;;;;41.42;23.80;;;;;;;-0.15;84.78;98246.88;5019979;28;20022;-80
2022/12/11 02:32:53;;;;;;;42.53;22.23;;;;;;;-0.74;83.92;98253.59;5033719;28;20030;-81
2022/12/11 02:35:23;;;;;;;39.80;23.05;;;;;;;-1.19;85.48;98241.78;5016913;28;20038;-80
2022/12/11 02:37:56;;;;;;;46.90;23.40;;;;;;;-1.23;86.27;98242.34;5021967;28;20052;-82
2022/12/11 02:40:27;;;;;;;48.83;26.30;;;;;;;-1.22;85.90;98251.84;5016319;28;20074;-80
2022/12/11 02:42:55;;;;;;;50.28;23.95;;;;;;;-1.34;86.25;98235.81;5024244;28;20184;-81
2022/12/11 02:45:23;;;;;;;54.17;24.58;;;;;;;-1.41;87.07;98244.59;5023384;28;20030;-81
2022/12/11 02:47:49;;;;;;;53.70;24.55;;;;;;;-1.18;86.94;98230.31;5015882;28;20040;-80
2022/12/11 02:50:18;;;;;;;52.53;24.48;;;;;;;-0.44;88.72;98236.69;5014223;28;20411;-81
2022/12/11 02:52:47;;;;;;;53.00;24.23;;;;;;;0.44;90.33;98246.25;5015564;28;20517;-81
2022/12/11 02:55:14;;;;;;;54.40;27.80;;;;;;;-0.55;85.70;98236.41;5020829;28;20484;-80
2022/12/11 02:57:49;;;;;;;46.85;23.52;;;;;;;-1.30;86.43;98229.22;5024124;28;20039;-80
2022/12/11 03:00:18;;;;;;;41.63;20.60;;;;;;;0.39;90.59;98225.06;5021978;28;20033;-80
2022/12/11 03:02:45;;;;;;;44.30;23.13;;;;;;;-0.40;85.79;98219.56;5024862;28;20279;-80
2022/12/11 03:05:13;;;;;;;47.85;23.77;;;;;;;-0.01;87.41;98242.50;4987896;28;20525;-81
2022/12/11 03:07:41;;;;;;;54.42;24.38;;;;;;;0.81;88.96;98232.56;5025390;28;20384;-81
2022/12/11 03:10:09;;;;;;;44.40;23.42;;;;;;;0.50;86.99;98240.25;5023438;28;20424;-80
2022/12/11 03:12:37;;;;;;;48.30;22.48;;;;;;;0.93;86.61;98244.13;5024385;28;20734;-81
2022/12/11 03:15:08;;;;;;;43.05;24.00;;;;;;;1.22;87.16;98241.06;5020713;28;20128;-81
2022/12/11 03:17:43;;;;;;;47.60;23.58;;;;;;;0.94;84.79;98231.78;5021382;28;20041;-81
2022/12/11 03:20:29;;;;;;;42.65;22.00;;;;;;;0.86;87.39;98237.22;5017892;28;20481;-80
2022/12/11 03:23:20;;;;;;;43.63;23.80;;;;;;;-0.30;82.99;98243.59;5021502;28;20030;-80
2022/12/11 03:25:48;;;;;;;50.80;24.98;;;;;;;0.04;84.63;98241.91;5021086;28;20037;-81
2022/12/11 03:28:18;;;;;;;46.45;24.52;;;;;;;0.25;85.08;98226.03;5024316;28;20029;-81
2022/12/11 03:30:47;;;;;;;42.08;22.95;;;;;;;0.26;85.56;98214.53;5023505;28;20389;-82
2022/12/11 03:33:20;;;;;;;45.03;23.35;;;;;;;0.10;85.56;98243.75;5025003;28;20053;-81
2022/12/11 03:35:55;;;;;;;44.72;24.90;;;;;;;0.11;87.84;98230.44;5016907;28;20503;-80
2022/12/11 03:38:26;;;;;;;52.13;25.80;;;;;;;-0.09;86.42;98213.84;5022639;28;20021;-80
2022/12/11 03:40:57;;;;;;;46.25;23.35;;;;;;;-0.24;85.18;98248.03;5021063;28;20037;-80
2022/12/11 03:43:24;;;;;;;51.25;24.92;;;;;;;-0.16;85.85;98240.03;5023931;28;20021;-80
2022/12/11 03:45:50;;;;;;;57.88;27.85;;;;;;;-0.50;84.89;98231.41;5023279;28;20071;-81
2022/12/11 03:48:17;;;;;;;52.10;27.40;;;;;;;-0.15;87.84;98252.13;5000238;28;20437;-80
2022/12/11 03:50:46;;;;;;;56.00;27.15;;;;;;;-0.48;88.22;98229.38;5020786;28;20052;-80
2022/12/11 03:53:11;;;;;;;59.35;27.48;;;;;;;-0.21;84.60;98239.81;5020153;28;20029;-81
2022/12/11 03:55:39;;;;;;;51.58;26.17;;;;;;;0.13;88.98;98246.00;5002235;28;20106;-80
2022/12/11 03:58:04;;;;;;;57.63;28.50;;;;;;;-0.60;85.39;98234.34;5022167;28;20022;-81
2022/12/11 04:00:30;;;;;;;47.72;24.45;;;;;;;-0.89;85.70;98222.28;5027148;28;20087;-81
2022/12/11 04:03:14;;;;;;;51.72;24.48;;;;;;;-0.04;90.19;98214.03;5026080;28;20029;-80
2022/12/11 04:05:53;;;;;;;56.90;29.65;;;;;;;0.30;85.61;98224.44;5008493;28;20481;-81
2022/12/11 04:08:20;;;;;;;51.38;24.88;;;;;;;-0.15;86.59;98240.81;5017758;28;20048;-81
2022/12/11 04:10:46;;;;;;;49.00;23.38;;;;;;;0.66;88.73;98234.59;5023241;28;20033;-81
2022/12/11 04:13:11;;;;;;;48.33;23.63;;;;;;;0.53;88.78;98218.81;5018280;28;20037;-81
2022/12/11 04:15:38;;;;;;;43.85;24.90;;;;;;;0.93;87.30;98227.53;5008739;28;20030;-81
2022/12/11 04:26:19;;;;;;;45.28;23.88;;;;;;;0.28;84.93;98226.47;5022016;28;20039;-81
2022/12/11 04:28:47;;;;;;;53.15;26.33;;;;;;;0.20;84.95;98221.38;5023058;28;20030;-81
2022/12/11 04:31:14;;;;;;;48.55;26.33;;;;;;;0.62;84.90;98236.00;5021930;28;20075;-81
2022/12/11 04:33:39;;;;;;;43.47;23.08;;;;;;;0.64;85.89;98236.59;5025491;28;20104;-81
2022/12/11 04:36:05;;;;;;;43.60;24.55;;;;;;;-0.07;84.64;98223.09;5026509;28;20478;-81
2022/12/11 04:38:31;;;;;;;50.03;26.35;;;;;;;-0.98;84.11;98233.88;5018389;28;20391;-80
2022/12/11 04:41:02;;;;;;;49.83;24.98;;;;;;;-1.08;85.68;98222.13;5004933;28;20550;-80
2022/12/11 04:43:27;;;;;;;48.92;26.95;;;;;;;-1.22;85.40;98241.38;5019948;28;20041;-81
2022/12/11 04:46:10;;;;;;;54.72;27.75;;;;;;;-1.41;85.69;98242.78;5023049;28;20533;-81
2022/12/11 04:48:36;;;;;;;50.83;26.88;;;;;;;-1.44;86.76;98226.66;5018989;28;21346;-82
2022/12/11 04:51:02;;;;;;;60.83;27.38;;;;;;;-1.72;85.50;98214.31;5024467;28;20557;-80
2022/12/11 04:53:28;;;;;;;61.45;29.60;;;;;;;-0.85;86.92;98222.69;5011396;28;20026;-81
2022/12/11 04:55:54;;;;;;;59.70;29.10;;;;;;;-0.73;85.63;98229.03;5017307;28;20036;-82
2022/12/11 04:58:20;;;;;;;60.70;29.15;;;;;;;-1.13;84.62;98208.78;5027559;28;20033;-82
2022/12/11 05:00:45;;;;;;;62.22;28.40;;;;;;;-1.32;84.96;98225.16;4989932;28;20328;-83
2022/12/11 05:03:11;;;;;;;61.92;30.13;;;;;;;-1.44;85.87;98226.66;5004896;28;20041;-82
2022/12/11 05:05:37;;;;;;;53.30;25.35;;;;;;;-0.41;90.62;98196.94;5004819;28;20048;-82
2022/12/11 05:08:03;;;;;;;54.80;26.23;;;;;;;0.67;89.05;98220.47;5022809;28;20087;-81
2022/12/11 05:10:28;;;;;;;55.10;27.58;;;;;;;-0.19;86.04;98198.47;5025972;28;20033;-82
2022/12/11 05:12:54;;;;;;;60.90;29.10;;;;;;;0.61;87.82;98168.75;5024100;28;20065;-82
2022/12/11 05:15:19;;;;;;;51.53;26.98;;;;;;;0.73;87.52;98209.97;5023515;28;20056;-82
2022/12/11 05:17:44;;;;;;;53.38;28.52;;;;;;;-0.21;85.19;98186.53;5003947;28;20034;-82
2022/12/11 05:20:10;;;;;;;57.80;28.20;;;;;;;0.02;85.61;98199.34;5005853;28;20044;-84
2022/12/11 05:22:37;;;;;;;51.28;25.42;;;;;;;-0.26;85.18;98204.66;5026291;28;20445;-82
2022/12/11 05:25:02;;;;;;;53.03;25.73;;;;;;;-0.27;85.68;98201.25;5024044;28;20465;-82
2022/12/11 05:27:28;;;;;;;59.55;27.58;;;;;;;-0.13;87.69;98209.97;5028398;28;20087;-82
2022/12/11 05:29:53;;;;;;;61.40;29.27;;;;;;;0.11;85.88;98192.91;5027438;28;20037;-82
2022/12/11 05:32:19;;;;;;;63.60;30.65;;;;;;;-0.65;84.94;98196.63;5005859;28;20041;-81
2022/12/11 05:34:44;;;;;;;65.82;28.42;;;;;;;-1.08;85.77;98206.41;5026262;28;20026;-81
2022/12/11 05:37:09;;;;;;;52.97;26.92;;;;;;;-1.37;85.23;98188.25;5019827;28;20080;-82
2022/12/11 05:39:35;;;;;;;61.55;30.75;;;;;;;-1.46;85.21;98211.13;5008511;28;20036;-82
2022/12/11 05:42:01;;;;;;;55.70;27.92;;;;;;;-0.96;88.17;98216.19;5017931;28;20033;-82
2022/12/11 05:44:26;;;;;;;60.75;28.77;;;;;;;0.37;89.50;98213.97;5024394;28;20041;-82
2022/12/11 05:46:52;;;;;;;59.90;28.50;;;;;;;0.56;88.29;98205.31;5002192;28;20048;-82
2022/12/11 05:49:17;;;;;;;62.20;32.40;;;;;;;-0.66;85.73;98172.25;5006396;28;20159;-82
2022/12/11 05:51:43;;;;;;;61.60;30.55;;;;;;;-0.57;85.84;98204.34;5000647;28;20059;-81
2022/12/11 05:54:09;;;;;;;54.38;27.65;;;;;;;0.50;88.45;98206.91;5020767;28;20042;-82
2022/12/11 05:56:36;;;;;;;57.05;27.20;;;;;;;0.59;87.24;98192.56;5014698;28;20116;-81
2022/12/11 05:59:03;;;;;;;56.65;27.40;;;;;;;0.32;87.08;98211.13;5020694;28;20029;-81
2022/12/11 06:01:35;;;;;;;56.33;28.85;;;;;;;0.48;87.49;98197.63;5008526;28;20418;-82
2022/12/11 06:04:02;;;;;;;64.53;31.55;;;;;;;-0.95;83.16;98201.28;5008369;28;20029;-81
2022/12/11 06:06:28;;;;;;;65.22;32.03;;;;;;;-1.37;85.77;98196.13;5024913;28;20029;-82
2022/12/11 06:08:55;;;;;;;71.70;31.83;;;;;;;-1.52;85.79;98199.63;5031352;28;20030;-82
2022/12/11 06:11:22;;;;;;;66.32;31.50;;;;;;;-0.63;89.97;98187.56;5020019;28;20041;-82
2022/12/11 06:13:47;;;;;;;71.80;30.63;;;;;;;-0.29;86.65;98189.34;5020840;28;20303;-81
2022/12/11 06:16:13;;;;;;;68.05;34.00;;;;;;;-0.17;85.48;98200.88;5022601;28;20307;-81
2022/12/11 06:18:40;;;;;;;63.22;29.15;;;;;;;0.33;88.50;98176.00;5025499;28;20026;-82
2022/12/11 06:21:17;;;;;;;60.35;29.27;;;;;;;0.89;87.19;98195.63;5023442;28;20022;-82
2022/12/11 06:23:44;;;;;;;61.28;30.33;;;;;;;0.00;84.22;98202.97;5024886;28;20030;-83
2022/12/11 06:26:10;;;;;;;57.08;26.85;;;;;;;0.00;87.87;98175.94;5027824;28;20029;-82
2022/12/11 06:28:36;;;;;;;62.58;30.55;;;;;;;0.39;86.22;98196.19;5024923;28;20506;-82
2022/12/11 06:31:02;;;;;;;52.92;27.25;;;;;;;0.71;86.78;98166.53;5030251;28;20041;-82
2022/12/11 06:33:29;;;;;;;57.67;27.38;;;;;;;0.95;85.93;98170.34;5035851;28;20110;-82
2022/12/11 06:35:55;;;;;;;44.95;25.23;;;;;;;0.70;85.80;98152.59;5010771;28;20512;-82
2022/12/11 06:38:21;;;;;;;63.45;31.58;;;;;;;0.20;83.35;98176.00;5029007;28;20087;-82
2022/12/11 06:40:53;;;;;;;60.53;28.83;;;;;;;-0.57;83.88;98168.47;5028764;28;20033;-82
2022/12/11 06:43:19;;;;;;;59.55;31.70;;;;;;;-0.71;85.54;98172.00;5027775;28;20040;-81
2022/12/11 06:45:44;;;;;;;63.30;32.38;;;;;;;-1.57;85.18;98185.47;5006994;28;20865;-82
2022/12/11 06:48:09;;;;;;;60.33;31.30;;;;;;;-1.65;85.56;98177.75;5034075;28;20507;-81
2022/12/11 06:50:37;;;;;;;66.60;32.78;;;;;;;-1.63;86.32;98192.28;5026051;28;20381;-82
2022/12/11 06:53:02;;;;;;;69.93;33.88;;;;;;;-1.72;86.91;98182.94;5030068;28;20075;-81
2022/12/11 06:55:28;;;;;;;81.03;35.50;;;;;;;-1.63;86.82;98197.50;4998162;28;20041;-82
2022/12/11 06:57:53;;;;;;;66.45;31.95;;;;;;;-0.86;90.24;98182.63;5029387;28;20116;-82
2022/12/11 07:00:19;;;;;;;67.82;32.83;;;;;;;0.10;90.23;98201.78;5011716;28;20103;-82
2022/12/11 07:02:44;;;;;;;73.80;34.45;;;;;;;0.07;88.74;98175.97;5005643;28;20437;-82
2022/12/11 07:05:09;;;;;;;67.65;32.17;;;;;;;0.01;86.62;98188.03;5025508;28;20748;-82
2022/12/11 07:07:35;;;;;;;62.20;31.77;;;;;;;-1.02;85.59;98208.28;5006180;28;20136;-82
2022/12/11 07:10:00;;;;;;;67.03;32.15;;;;;;;-1.02;86.95;98203.84;5022892;28;20250;-82
2022/12/11 07:12:26;;;;;;;62.10;30.15;;;;;;;0.15;89.79;98199.38;5027525;28;20030;-82
2022/12/11 07:14:51;;;;;;;61.03;30.50;;;;;;;0.21;88.29;98198.56;5013822;28;20118;-82
2022/12/11 07:17:16;;;;;;;57.28;30.35;;;;;;;0.54;87.40;98194.19;4996505;28;20129;-82
2022/12/11 07:19:43;;;;;;;66.65;33.47;;;;;;;0.31;86.46;98204.25;5012153;28;20124;-82
2022/12/11 07:22:09;;;;;;;50.38;26.98;;;;;;;0.51;86.57;98184.09;5025860;28;20033;-82
2022/12/11 07:24:34;;;;;;;54.53;31.42;;;;;;;-0.36;86.60;98188.50;5022917;28;20052;-82
2022/12/11 07:26:59;;;;;;;73.82;43.47;;;;;;;-0.53;85.68;98206.38;5022539;28;20362;-82
2022/12/11 07:29:25;;;;;;;75.80;47.38;;;;;;;-0.75;86.16;98210.06;5028899;28;20037;-81
2022/12/11 07:31:50;;;;;;;102.93;63.20;;;;;;;-1.49;85.90;98211.53;5012533;28;20037;-82
2022/12/11 07:34:15;;;;;;;79.97;40.10;;;;;;;-1.55;87.25;98218.31;5008426;28;20058;-81
2022/12/11 07:36:42;;;;;;;68.22;34.28;;;;;;;-1.22;88.25;98195.03;5004886;28;20034;-82
2022/12/11 07:39:10;;;;;;;74.88;35.90;;;;;;;-1.11;87.26;98205.00;5023098;28;20030;-82
2022/12/11 07:41:35;;;;;;;76.32;32.92;;;;;;;-1.38;86.74;98199.75;5001257;28;20037;-81
2022/12/11 07:44:01;;;;;;;69.30;34.35;;;;;;;-1.24;88.16;98181.31;4993667;28;20206;-82
2022/12/11 07:46:29;;;;;;;72.00;33.97;;;;;;;-0.20;89.85;98190.81;5025493;28;20025;-82
2022/12/11 07:48:54;;;;;;;67.15;32.83;;;;;;;0.55;88.16;98201.03;5027098;28;20033;-82
2022/12/11 07:51:26;;;;;;;67.90;33.53;;;;;;;0.42;87.87;98186.09;5023614;28;20087;-82
2022/12/11 07:54:15;;;;;;;57.55;29.55;;;;;;;0.36;85.10;98207.09;5009925;28;20034;-82
2022/12/11 07:56:42;;;;;;;59.20;30.95;;;;;;;-0.77;84.81;98201.59;5018385;28;20025;-82
2022/12/11 07:59:07;;;;;;;66.25;33.35;;;;;;;0.39;88.09;98222.44;5020213;28;20509;-82
2022/12/11 08:01:35;;;;;;;64.68;31.52;;;;;;;-0.95;84.43;98207.34;5020111;28;20038;-82
2022/12/11 08:04:02;;;;;;;65.30;32.53;;;;;;;-0.05;89.13;98222.94;5024109;28;20037;-82
2022/12/11 08:06:31;;;;;;;72.50;34.20;;;;;;;0.09;86.73;98202.81;5024631;28;20038;-82
2022/12/11 08:08:59;;;;;;;67.68;31.40;;;;;;;-0.35;88.46;98209.28;5019679;28;20076;-82
2022/12/11 08:11:25;;;;;;;63.80;31.42;;;;;;;-0.75;85.07;98212.69;5023271;28;20033;-82
2022/12/11 08:13:51;;;;;;;70.93;34.25;;;;;;;-0.54;88.65;98178.53;5026959;28;20091;-82
2022/12/11 08:16:17;;;;;;;67.22;33.90;;;;;;;-0.56;85.73;98211.19;5024608;28;20295;-82
2022/12/11 08:18:44;;;;;;;64.05;31.60;;;;;;;-1.11;85.76;98212.03;5023604;28;20486;-82
2022/12/11 08:21:15;;;;;;;73.68;35.67;;;;;;;-1.19;86.57;98209.56;5026146;28;20079;-82
2022/12/11 08:23:41;;;;;;;72.43;33.63;;;;;;;-0.72;87.28;98211.50;5041788;28;20056;-82
2022/12/11 08:26:09;;;;;;;71.80;33.90;;;;;;;-0.07;89.00;98203.97;5024047;28;20030;-83
2022/12/11 08:28:35;;;;;;;86.32;40.15;;;;;;;-0.71;84.76;98202.63;5019372;28;20083;-82
2022/12/11 08:31:06;;;;;;;74.82;35.90;;;;;;;-1.15;86.30;98205.56;5006303;28;20037;-82
2022/12/11 08:33:33;;;;;;;68.15;31.75;;;;;;;0.41;89.35;98210.75;5025929;28;20028;-82
2022/12/11 08:36:02;;;;;;;76.63;35.72;;;;;;;-0.31;85.48;98213.16;5020729;28;20522;-82
2022/12/11 08:38:28;;;;;;;69.65;32.60;;;;;;;-0.28;89.02;98214.53;5035707;28;20079;-82
2022/12/11 08:40:53;;;;;;;77.15;36.97;;;;;;;-0.65;86.92;98214.97;5022234;28;20116;-81
2022/12/11 08:43:19;;;;;;;74.55;34.13;;;;;;;-1.27;84.65;98204.47;5018156;28;20060;-81
2022/12/11 08:45:45;;;;;;;71.25;35.08;;;;;;;-1.12;86.44;98215.66;4989115;28;20034;-81
2022/12/11 08:48:11;;;;;;;73.43;33.17;;;;;;;-0.95;86.17;98212.56;5022374;28;20032;-82
2022/12/11 08:50:36;;;;;;;79.20;36.00;;;;;;;0.08;89.73;98214.28;5021417;28;20041;-82
2022/12/11 08:53:01;;;;;;;83.13;34.03;;;;;;;-0.10;86.74;98205.16;5015347;28;20394;-81
2022/12/11 08:55:27;;;;;;;70.43;34.20;;;;;;;0.79;87.42;98212.81;5021413;28;20034;-82
2022/12/11 08:57:52;;;;;;;75.90;38.40;;;;;;;0.69;86.39;98198.25;5011508;28;20552;-81
2022/12/11 09:00:17;;;;;;;68.68;32.80;;;;;;;0.74;85.19;98221.28;5011632;28;20481;-81
2022/12/11 09:02:43;;;;;;;65.95;31.63;;;;;;;0.76;86.32;98206.13;5028593;28;20457;-82
2022/12/11 09:05:09;;;;;;;60.42;31.88;;;;;;;0.93;85.91;98207.34;5026309;28;20449;-82
2022/12/11 09:07:36;;;;;;;68.53;33.13;;;;;;;1.06;85.81;98209.13;5021487;28;20521;-82
2022/12/11 09:10:02;;;;;;;59.67;29.92;;;;;;;1.22;85.44;98214.78;5024345;28;20061;-82
2022/12/11 09:12:28;;;;;;;59.42;31.98;;;;;;;1.07;85.39;98214.19;5028067;28;20361;-82
2022/12/11 09:14:53;;;;;;;61.60;31.42;;;;;;;-0.03;85.46;98192.88;5002240;28;20432;-82
2022/12/11 09:17:19;;;;;;;71.07;33.88;;;;;;;-0.68;85.00;98202.25;5022103;28;20044;-82
2022/12/11 09:19:44;;;;;;;65.28;32.03;;;;;;;0.52;88.12;98207.53;4999602;28;20056;-81
2022/12/11 09:22:11;;;;;;;78.47;36.65;;;;;;;0.23;84.86;98199.19;5032116;28;20036;-82
2022/12/11 09:24:37;;;;;;;69.43;33.25;;;;;;;-0.27;86.61;98196.03;5024580;28;20073;-81
2022/12/11 09:27:03;;;;;;;80.15;38.50;;;;;;;-0.03;86.36;98200.75;5026989;28;20073;-82
2022/12/11 09:29:29;;;;;;;72.13;33.38;;;;;;;0.38;87.99;98199.81;5021964;28;20454;-82
2022/12/11 09:31:54;;;;;;;68.68;33.70;;;;;;;-0.18;86.35;98176.50;5025902;28;20060;-81
2022/12/11 09:34:20;;;;;;;76.13;36.78;;;;;;;-0.01;87.30;98184.81;5023737;28;20537;-81
2022/12/11 09:36:46;;;;;;;69.70;33.40;;;;;;;0.63;87.28;98172.00;5006530;28;20033;-82
2022/12/11 09:39:12;;;;;;;64.70;32.65;;;;;;;0.94;86.73;98193.16;5007677;28;20405;-82
2022/12/11 09:41:59;;;;;;;70.72;32.63;;;;;;;0.69;87.19;98200.88;5020475;28;20053;-82
2022/12/11 09:44:38;;;;;;;62.88;31.38;;;;;;;0.88;86.47;98196.63;5026235;28;20071;-81
2022/12/11 09:47:19;;;;;;;63.45;32.13;;;;;;;0.67;87.33;98195.03;5019078;28;20519;-81
2022/12/11 09:49:48;;;;;;;67.75;31.15;;;;;;;0.85;86.22;98186.53;5024300;28;20048;-82
2022/12/11 09:52:32;;;;;;;65.72;31.92;;;;;;;0.95;86.46;98176.41;5016825;28;20034;-82
2022/12/11 09:55:02;;;;;;;62.35;31.20;;;;;;;0.30;87.79;98182.47;5020601;28;20033;-82
2022/12/11 09:57:52;;;;;;;66.03;32.83;;;;;;;0.36;86.69;98194.78;5022273;28;20113;-82
2022/12/11 10:00:40;;;;;;;71.70;33.22;;;;;;;0.54;87.01;98175.81;5015337;28;20034;-80
2022/12/11 10:03:20;;;;;;;71.68;34.25;;;;;;;0.40;87.09;98180.25;4994449;28;20038;-82
2022/12/11 10:05:48;;;;;;;71.18;32.38;;;;;;;0.97;86.96;98194.59;5023117;28;20072;-81
2022/12/11 10:08:26;;;;;;;65.60;32.50;;;;;;;0.65;86.69;98196.22;5025557;28;20075;-81
2022/12/11 10:11:29;;;;;;;67.03;31.55;;;;;;;1.04;86.82;98205.91;5027591;28;20034;-81
2022/12/11 10:14:21;;;;;;;69.72;32.67;;;;;;;1.22;85.83;98196.38;5025191;28;21105;-81
2022/12/11 10:17:01;;;;;;;70.10;33.50;;;;;;;0.99;85.71;98180.25;5027750;28;20509;-81
2022/12/11 10:19:30;;;;;;;63.47;31.02;;;;;;;1.23;85.46;98187.50;5007487;28;20030;-81
2022/12/11 10:21:56;;;;;;;63.20;31.85;;;;;;;1.35;85.41;98195.56;5026699;28;20025;-81
2022/12/11 10:24:28;;;;;;;62.47;30.45;;;;;;;1.30;85.58;98201.44;5028751;28;20029;-81
2022/12/11 10:26:57;;;;;;;63.40;32.65;;;;;;;0.97;84.70;98198.03;5030723;28;20036;-81
2022/12/11 10:29:22;;;;;;;59.72;30.75;;;;;;;1.12;85.92;98189.94;5028528;28;20034;-81
2022/12/11 10:31:57;;;;;;;65.50;32.35;;;;;;;1.22;86.24;98185.06;5023856;28;20155;-81
2022/12/11 10:34:29;;;;;;;74.88;37.60;;;;;;;1.15;83.31;98187.72;5028568;28;20034;-81
2022/12/11 10:36:54;;;;;;;66.72;35.28;;;;;;;0.85;84.22;98170.78;5022344;28;20029;-82
2022/12/11 10:39:21;;;;;;;77.28;38.40;;;;;;;0.51;84.54;98169.16;5009892;28;20037;-82
2022/12/11 10:41:52;;;;;;;64.78;33.72;;;;;;;1.07;84.33;98195.00;5023383;28;20041;-81
2022/12/11 10:44:24;;;;;;;64.80;34.13;;;;;;;0.96;83.65;98164.09;5024244;28;20440;-81
2022/12/11 10:47:08;;;;;;;73.88;35.95;;;;;;;1.25;83.57;98187.28;5017475;28;20086;-81
2022/12/11 10:49:35;;;;;;;63.83;34.25;;;;;;;0.79;83.74;98184.69;5034741;28;20025;-81
2022/12/11 10:52:19;;;;;;;71.20;34.17;;;;;;;1.21;84.02;98176.38;5030860;28;20047;-81
2022/12/11 10:54:52;;;;;;;71.95;35.47;;;;;;;0.52;83.58;98190.97;5022655;28;20620;-81
2022/12/11 10:57:27;;;;;;;70.15;34.38;;;;;;;0.99;84.35;98159.22;5027307;28;20033;-82
2022/12/11 10:59:54;;;;;;;72.35;34.47;;;;;;;1.25;84.03;98182.84;5020043;28;20022;-82
2022/12/11 11:02:25;;;;;;;64.00;30.52;;;;;;;1.29;81.59;98181.41;5030490;28;20456;-81
2022/12/11 11:04:52;;;;;;;62.35;29.55;;;;;;;0.61;82.86;98187.13;5029174;28;20711;-81
2022/12/11 11:07:17;;;;;;;61.50;35.08;;;;;;;1.10;83.36;98170.94;5030134;28;20038;-81
2022/12/11 11:09:42;;;;;;;69.10;33.85;;;;;;;0.55;81.72;98148.53;5029900;28;20025;-82
2022/12/11 11:12:25;;;;;;;60.88;31.77;;;;;;;0.60;83.35;98165.31;4990911;28;20045;-81
2022/12/11 11:15:04;;;;;;;65.65;31.67;;;;;;;0.04;83.42;98161.41;5009229;28;20044;-82
2022/12/11 11:17:39;;;;;;;73.97;34.05;;;;;;;-0.21;84.24;98157.69;5028407;28;20180;-81
2022/12/11 11:20:13;;;;;;;61.90;32.00;;;;;;;-0.81;84.71;98146.16;5027884;28;20033;-81
2022/12/11 11:22:45;;;;;;;65.50;33.00;;;;;;;0.34;86.86;98130.38;5028486;28;20174;-81
2022/12/11 11:25:20;;;;;;;65.53;31.80;;;;;;;1.10;86.14;98147.28;5028161;28;20017;-81
2022/12/11 11:27:51;;;;;;;70.53;32.67;;;;;;;0.83;84.78;98151.75;5028128;28;20032;-81
2022/12/11 11:30:21;;;;;;;65.22;31.73;;;;;;;1.06;85.48;98149.53;5026091;28;20497;-82
2022/12/11 11:33:01;;;;;;;65.57;32.38;;;;;;;1.24;85.17;98139.19;5029782;28;20033;-81
2022/12/11 11:35:29;;;;;;;59.75;29.80;;;;;;;0.89;82.77;98139.66;5023129;28;20429;-81
2022/12/11 11:38:17;;;;;;;54.28;30.02;;;;;;;0.92;83.17;98112.97;5025087;28;20037;-81
2022/12/11 11:41:08;;;;;;;55.20;29.38;;;;;;;1.03;83.48;98138.59;5025700;28;20025;-81